Time;durP1;ratioP1;P1;durP2;ratioP2;P2;SDS_P1;SDS_P2;PMS_P1;PMS_P2;Temp;Humidity;BMP_temperature;BMP_pressure;BME280_temperature;BME280_humidity;BME280_pressure;Samples;Min_cycle;Max_cycle;Signal;HPM_P1;HPM_P2
2023/05/09 00:02:01;;;;;;;54.60;28.65;;;;;;;;;;5051239;28;20057;-73
2023/05/09 00:04:27;;;;;;;52.50;28.20;;;;;;;;;;5052729;28;20052;-72
2023/05/09 00:06:54;;;;;;;52.63;28.77;;;;;;;;;;5051417;28;20095;-72
2023/05/09 00:09:20;;;;;;;50.70;28.17;;;;;;;;;;5034707;28;20084;-73
2023/05/09 00:11:46;;;;;;;53.47;29.85;;;;;;;;;;5051403;28;20076;-72
2023/05/09 00:14:12;;;;;;;54.15;29.63;;;;;;;;;;5051363;28;20045;-72
2023/05/09 00:16:39;;;;;;;61.20;33.00;;;;;;;;;;5034885;28;20085;-72
2023/05/09 00:19:05;;;;;;;55.38;31.65;;;;;;;;;;5052791;28;20104;-72
2023/05/09 00:21:32;;;;;;;58.17;30.83;;;;;;;;;;5034575;28;20045;-72
2023/05/09 00:23:59;;;;;;;57.70;31.48;;;;;;;;;;5032338;28;20061;-73
2023/05/09 00:26:26;;;;;;;66.45;32.22;;;;;;;;;;5032565;28;20045;-73
2023/05/09 00:28:52;;;;;;;58.80;31.25;;;;;;;;;;5031203;28;20046;-73
2023/05/09 00:31:18;;;;;;;58.33;32.45;;;;;;;;;;5032216;28;20045;-73
2023/05/09 00:33:44;;;;;;;63.47;33.10;;;;;;;;;;5014487;28;20045;-72
2023/05/09 00:36:10;;;;;;;61.90;32.85;;;;;;;;;;5031001;28;20502;-72
2023/05/09 00:38:36;;;;;;;53.10;30.05;;;;;;;;;;5031938;28;20133;-72
2023/05/09 00:41:02;;;;;;;55.20;29.92;;;;;;;;;;5032503;28;20115;-72
2023/05/09 00:43:31;;;;;;;51.50;28.58;;;;;;;;;;5032519;28;20042;-72
2023/05/09 00:45:57;;;;;;;49.67;27.92;;;;;;;;;;5032326;28;20120;-73
2023/05/09 00:48:23;;;;;;;51.20;28.25;;;;;;;;;;5032264;28;20045;-72
2023/05/09 00:50:51;;;;;;;51.58;28.33;;;;;;;;;;5047746;28;20037;-72
2023/05/09 00:53:19;;;;;;;53.90;28.02;;;;;;;;;;5049058;28;20053;-72
2023/05/09 00:55:45;;;;;;;50.22;28.13;;;;;;;;;;5032539;28;20103;-73
2023/05/09 00:58:11;;;;;;;47.03;25.92;;;;;;;;;;5031955;28;20038;-72
2023/05/09 01:00:37;;;;;;;49.53;26.58;;;;;;;;;;5031790;28;20050;-72
2023/05/09 01:03:04;;;;;;;53.33;27.52;;;;;;;;;;5031923;28;20071;-72
2023/05/09 01:05:53;;;;;;;44.13;26.15;;;;;;;;;;5032476;28;20045;-72
2023/05/09 01:08:39;;;;;;;48.38;26.48;;;;;;;;;;5017810;28;20089;-73
2023/05/09 01:11:24;;;;;;;49.63;27.38;;;;;;;;;;5034521;28;20053;-72
2023/05/09 01:14:03;;;;;;;51.75;29.17;;;;;;;;;;5036484;28;20077;-73
2023/05/09 01:16:41;;;;;;;52.83;28.05;;;;;;;;;;5034763;28;20057;-73
2023/05/09 01:19:26;;;;;;;51.67;28.75;;;;;;;;;;5016821;28;20100;-73
2023/05/09 01:21:54;;;;;;;52.05;28.83;;;;;;;;;;5034170;28;20041;-74
2023/05/09 01:24:23;;;;;;;51.97;27.75;;;;;;;;;;5033414;28;20073;-73
2023/05/09 01:27:02;;;;;;;58.50;31.60;;;;;;;;;;5034305;28;20120;-73
2023/05/09 01:29:38;;;;;;;57.47;30.23;;;;;;;;;;5017283;28;20053;-73
2023/05/09 01:32:15;;;;;;;58.78;31.23;;;;;;;;;;5034329;28;20086;-73
2023/05/09 01:34:43;;;;;;;57.13;31.88;;;;;;;;;;5009700;28;20050;-73
2023/05/09 01:37:10;;;;;;;60.35;30.73;;;;;;;;;;5033900;28;20111;-73
2023/05/09 01:39:38;;;;;;;60.00;32.17;;;;;;;;;;5033483;28;20401;-73
2023/05/09 01:42:06;;;;;;;63.30;32.97;;;;;;;;;;5033196;28;20045;-74
2023/05/09 01:44:38;;;;;;;64.25;34.30;;;;;;;;;;5034653;28;20044;-73
2023/05/09 01:47:06;;;;;;;62.63;33.42;;;;;;;;;;5034830;28;20116;-73
2023/05/09 01:49:33;;;;;;;62.58;33.78;;;;;;;;;;5035189;28;20481;-74
2023/05/09 01:52:00;;;;;;;63.55;33.90;;;;;;;;;;5033830;28;20038;-73
2023/05/09 01:54:27;;;;;;;63.58;33.03;;;;;;;;;;5038430;28;20095;-74
2023/05/09 01:56:54;;;;;;;65.85;34.65;;;;;;;;;;5055475;28;20178;-74
2023/05/09 01:59:20;;;;;;;61.05;34.38;;;;;;;;;;5043619;28;20057;-74
2023/05/09 02:01:47;;;;;;;62.55;34.55;;;;;;;;;;5035025;28;20064;-73
2023/05/09 02:04:15;;;;;;;62.00;34.78;;;;;;;;;;5035365;28;20405;-73
2023/05/09 02:06:41;;;;;;;63.38;32.97;;;;;;;;;;5035477;28;20048;-73
2023/05/09 02:09:07;;;;;;;65.63;35.22;;;;;;;;;;5035264;28;20398;-73
2023/05/09 02:11:33;;;;;;;62.97;33.15;;;;;;;;;;5044597;28;20110;-73
2023/05/09 02:13:59;;;;;;;58.92;31.20;;;;;;;;;;5055240;28;20051;-73
2023/05/09 02:16:26;;;;;;;60.78;33.38;;;;;;;;;;5055013;28;20374;-73
2023/05/09 02:18:52;;;;;;;62.45;34.78;;;;;;;;;;5056231;28;20445;-74
2023/05/09 02:21:18;;;;;;;60.25;33.40;;;;;;;;;;5057519;28;20045;-73
2023/05/09 02:23:45;;;;;;;60.20;32.63;;;;;;;;;;5056535;28;20048;-73
2023/05/09 02:26:11;;;;;;;61.08;33.78;;;;;;;;;;5047220;28;20406;-74
2023/05/09 02:28:38;;;;;;;61.40;33.42;;;;;;;;;;5033304;28;20046;-74
2023/05/09 02:31:08;;;;;;;60.78;33.45;;;;;;;;;;5016677;28;20053;-73
2023/05/09 02:33:36;;;;;;;61.70;33.15;;;;;;;;;;5032988;28;20045;-74
2023/05/09 02:36:02;;;;;;;62.38;32.65;;;;;;;;;;5033286;28;20387;-74
2023/05/09 02:38:28;;;;;;;61.40;32.20;;;;;;;;;;5015923;28;20038;-74
2023/05/09 02:40:54;;;;;;;60.30;32.38;;;;;;;;;;5032344;28;20042;-73
2023/05/09 02:43:20;;;;;;;61.45;33.38;;;;;;;;;;5033158;28;20038;-73
2023/05/09 02:45:46;;;;;;;68.88;35.08;;;;;;;;;;5026153;28;20146;-73
2023/05/09 02:48:13;;;;;;;61.95;33.85;;;;;;;;;;5034317;28;20046;-73
2023/05/09 02:50:41;;;;;;;57.60;32.55;;;;;;;;;;5034477;28;20128;-73
2023/05/09 02:53:07;;;;;;;58.60;32.85;;;;;;;;;;5016759;28;20056;-73
2023/05/09 02:55:33;;;;;;;60.72;33.88;;;;;;;;;;5000188;28;20091;-74
2023/05/09 02:58:00;;;;;;;60.00;33.00;;;;;;;;;;5016784;28;20398;-74
2023/05/09 03:00:26;;;;;;;58.92;31.98;;;;;;;;;;5033611;28;20100;-74
2023/05/09 03:02:52;;;;;;;62.10;33.05;;;;;;;;;;5034339;28;20057;-73
2023/05/09 03:05:18;;;;;;;68.55;35.13;;;;;;;;;;5016568;28;20098;-74
2023/05/09 03:07:44;;;;;;;63.10;33.75;;;;;;;;;;5034015;28;20045;-74
2023/05/09 03:10:11;;;;;;;64.90;34.47;;;;;;;;;;5034008;28;20045;-74
2023/05/09 03:12:37;;;;;;;67.18;34.83;;;;;;;;;;5033737;28;20091;-74
2023/05/09 03:15:05;;;;;;;69.53;35.70;;;;;;;;;;5033755;28;20100;-73
2023/05/09 03:17:31;;;;;;;71.68;35.55;;;;;;;;;;5034197;28;20045;-73
2023/05/09 03:19:57;;;;;;;73.15;37.05;;;;;;;;;;5033868;28;20048;-73
2023/05/09 03:22:23;;;;;;;71.68;36.83;;;;;;;;;;5032766;28;20128;-74
2023/05/09 03:24:49;;;;;;;76.15;36.53;;;;;;;;;;5033724;28;20523;-73
2023/05/09 03:27:15;;;;;;;70.20;36.00;;;;;;;;;;5033887;28;20045;-73
2023/05/09 03:29:41;;;;;;;74.72;36.85;;;;;;;;;;5033324;28;20509;-73
2023/05/09 03:32:07;;;;;;;71.60;35.55;;;;;;;;;;5048774;28;20037;-74
2023/05/09 03:34:33;;;;;;;74.35;38.03;;;;;;;;;;5047149;28;20129;-74
2023/05/09 03:36:59;;;;;;;67.30;37.85;;;;;;;;;;5031616;28;20091;-73
2023/05/09 03:39:25;;;;;;;74.22;39.35;;;;;;;;;;5032033;28;20047;-74
2023/05/09 03:41:52;;;;;;;72.57;39.55;;;;;;;;;;5033540;28;20045;-73
2023/05/09 03:44:18;;;;;;;79.63;39.92;;;;;;;;;;5031971;28;20088;-73
2023/05/09 03:46:44;;;;;;;76.00;39.65;;;;;;;;;;5031644;28;20815;-73
2023/05/09 03:49:10;;;;;;;76.78;41.53;;;;;;;;;;5033496;28;20129;-74
2023/05/09 03:51:36;;;;;;;77.80;40.75;;;;;;;;;;5031594;28;20115;-73
2023/05/09 03:54:02;;;;;;;79.03;41.45;;;;;;;;;;5033319;28;20046;-73
2023/05/09 03:56:28;;;;;;;82.68;41.80;;;;;;;;;;5015592;28;20095;-73
2023/05/09 03:58:54;;;;;;;78.50;43.50;;;;;;;;;;5033075;28;20457;-73
2023/05/09 04:01:20;;;;;;;77.85;41.80;;;;;;;;;;5014923;28;20049;-74
2023/05/09 04:03:46;;;;;;;87.90;44.35;;;;;;;;;;5033090;28;20085;-73
2023/05/09 04:06:12;;;;;;;82.38;42.65;;;;;;;;;;5032905;28;20084;-73
2023/05/09 04:08:38;;;;;;;85.53;44.28;;;;;;;;;;5032865;28;20049;-73
2023/05/09 04:11:04;;;;;;;86.00;45.63;;;;;;;;;;5015143;28;20075;-73
2023/05/09 04:13:31;;;;;;;86.65;45.65;;;;;;;;;;5033075;28;20449;-74
2023/05/09 04:15:57;;;;;;;85.70;44.90;;;;;;;;;;5033056;28;20458;-73
2023/05/09 04:18:23;;;;;;;84.03;43.63;;;;;;;;;;5014076;28;20053;-74
2023/05/09 04:20:49;;;;;;;91.45;44.63;;;;;;;;;;5030800;28;20124;-73
2023/05/09 04:23:15;;;;;;;86.53;45.63;;;;;;;;;;5013685;28;20494;-73
2023/05/09 04:25:42;;;;;;;85.05;42.00;;;;;;;;;;5032226;28;20045;-73
2023/05/09 04:28:08;;;;;;;81.75;44.22;;;;;;;;;;5032740;28;20468;-73
2023/05/09 04:30:35;;;;;;;83.88;42.58;;;;;;;;;;5032432;28;20053;-74
2023/05/09 04:33:01;;;;;;;84.13;42.83;;;;;;;;;;5032110;28;20053;-73
2023/05/09 04:35:27;;;;;;;87.82;42.25;;;;;;;;;;5032530;28;20133;-73
2023/05/09 04:37:53;;;;;;;82.65;42.53;;;;;;;;;;5032631;28;20049;-74
2023/05/09 04:40:19;;;;;;;76.85;42.13;;;;;;;;;;5031353;28;20046;-73
2023/05/09 04:42:45;;;;;;;80.88;42.67;;;;;;;;;;5030564;28;20371;-73
2023/05/09 04:45:11;;;;;;;84.60;45.05;;;;;;;;;;5034387;28;20045;-74
2023/05/09 04:47:37;;;;;;;78.38;41.17;;;;;;;;;;5036053;28;20042;-73
2023/05/09 04:50:04;;;;;;;80.03;41.80;;;;;;;;;;5036427;28;20049;-73
2023/05/09 04:52:30;;;;;;;82.15;45.33;;;;;;;;;;5036226;28;20046;-73
2023/05/09 04:54:56;;;;;;;83.32;43.83;;;;;;;;;;5036025;28;20045;-73
2023/05/09 04:57:22;;;;;;;84.88;44.20;;;;;;;;;;5036493;28;20109;-73
2023/05/09 04:59:49;;;;;;;87.28;46.65;;;;;;;;;;5036270;28;20523;-73
2023/05/09 05:02:15;;;;;;;88.35;45.28;;;;;;;;;;5036178;28;20049;-73
2023/05/09 05:04:41;;;;;;;89.80;45.28;;;;;;;;;;5018716;28;20061;-73
2023/05/09 05:07:07;;;;;;;90.25;47.83;;;;;;;;;;5036119;28;20041;-73
2023/05/09 05:09:33;;;;;;;86.10;46.85;;;;;;;;;;5036070;28;20494;-74
2023/05/09 05:11:59;;;;;;;91.72;47.10;;;;;;;;;;5018214;28;20045;-74
2023/05/09 05:14:25;;;;;;;85.90;47.78;;;;;;;;;;5018206;28;20045;-74
2023/05/09 05:16:51;;;;;;;88.40;47.33;;;;;;;;;;5036028;28;20045;-74
2023/05/09 05:19:17;;;;;;;93.07;48.55;;;;;;;;;;5034029;28;20057;-74
2023/05/09 05:21:43;;;;;;;95.25;48.22;;;;;;;;;;5035426;28;20495;-74
2023/05/09 05:24:09;;;;;;;93.30;48.92;;;;;;;;;;5035308;28;20132;-72
2023/05/09 05:26:35;;;;;;;96.55;49.47;;;;;;;;;;5016492;28;20537;-72
2023/05/09 05:29:01;;;;;;;97.55;48.50;;;;;;;;;;5033700;28;20048;-72
2023/05/09 05:31:27;;;;;;;95.25;47.38;;;;;;;;;;5035795;28;20049;-72
2023/05/09 05:33:53;;;;;;;90.95;48.35;;;;;;;;;;5037432;28;20053;-72
2023/05/09 05:36:19;;;;;;;91.15;49.13;;;;;;;;;;5021120;28;20083;-71
2023/05/09 05:38:45;;;;;;;91.55;47.92;;;;;;;;;;5035430;28;20037;-72
2023/05/09 05:41:11;;;;;;;97.18;48.90;;;;;;;;;;5035345;28;20072;-73
2023/05/09 05:43:37;;;;;;;96.22;49.75;;;;;;;;;;5035347;28;20177;-74
2023/05/09 05:46:03;;;;;;;89.68;48.53;;;;;;;;;;5034178;28;20132;-73
2023/05/09 05:48:30;;;;;;;87.80;48.20;;;;;;;;;;5034724;28;20045;-73
2023/05/09 05:50:56;;;;;;;91.78;49.20;;;;;;;;;;5020259;28;20135;-73
2023/05/09 05:53:22;;;;;;;81.88;45.42;;;;;;;;;;5035121;28;20072;-73
2023/05/09 05:55:48;;;;;;;82.70;46.95;;;;;;;;;;5032680;28;20132;-73
2023/05/09 05:58:14;;;;;;;77.10;43.53;;;;;;;;;;5035339;28;20048;-73
2023/05/09 06:00:40;;;;;;;80.07;45.47;;;;;;;;;;5017142;28;20049;-73
2023/05/09 06:03:06;;;;;;;75.70;46.13;;;;;;;;;;5034990;28;20053;-73
2023/05/09 06:05:33;;;;;;;82.95;45.42;;;;;;;;;;5017320;28;20544;-73
2023/05/09 06:07:59;;;;;;;73.60;41.78;;;;;;;;;;5034228;28;20102;-73
2023/05/09 06:10:24;;;;;;;68.18;41.42;;;;;;;;;;5017345;28;20041;-73
2023/05/09 06:12:50;;;;;;;55.80;37.17;;;;;;;;;;5033647;28;20041;-73
2023/05/09 06:15:17;;;;;;;55.80;35.33;;;;;;;;;;5017021;28;20049;-73
2023/05/09 06:17:43;;;;;;;46.55;32.00;;;;;;;;;;5034289;28;20037;-74
2023/05/09 06:20:09;;;;;;;43.08;30.10;;;;;;;;;;5017443;28;20049;-73
2023/05/09 06:22:35;;;;;;;41.42;29.33;;;;;;;;;;5054817;28;20048;-73
2023/05/09 06:25:01;;;;;;;41.65;29.02;;;;;;;;;;5054659;28;20131;-73
2023/05/09 06:27:27;;;;;;;42.95;30.60;;;;;;;;;;5054814;28;20048;-73
2023/05/09 06:29:53;;;;;;;43.97;30.23;;;;;;;;;;5022461;28;20128;-74
2023/05/09 06:32:20;;;;;;;41.45;29.70;;;;;;;;;;5039609;28;20120;-74
2023/05/09 06:34:46;;;;;;;48.33;31.42;;;;;;;;;;5054048;28;20049;-73
2023/05/09 06:37:12;;;;;;;46.45;30.35;;;;;;;;;;5040360;28;20053;-73
2023/05/09 06:39:38;;;;;;;46.13;30.23;;;;;;;;;;5032945;28;20076;-73
2023/05/09 06:42:04;;;;;;;43.30;31.17;;;;;;;;;;5034710;28;20045;-73
2023/05/09 06:44:31;;;;;;;45.45;31.40;;;;;;;;;;5033156;28;20044;-72
2023/05/09 06:46:57;;;;;;;44.30;30.80;;;;;;;;;;5033220;28;20052;-74
2023/05/09 06:49:23;;;;;;;48.55;32.28;;;;;;;;;;5046805;28;20048;-74
2023/05/09 06:51:49;;;;;;;43.13;30.85;;;;;;;;;;5054253;28;20055;-74
2023/05/09 06:54:16;;;;;;;40.30;29.88;;;;;;;;;;5054156;28;20127;-74
2023/05/09 06:56:42;;;;;;;44.35;30.35;;;;;;;;;;5053968;28;20045;-72
2023/05/09 06:59:12;;;;;;;43.85;31.52;;;;;;;;;;5049342;28;20469;-73
2023/05/09 07:01:38;;;;;;;42.92;30.55;;;;;;;;;;5040020;28;20509;-73
2023/05/09 07:04:04;;;;;;;43.25;30.50;;;;;;;;;;5053417;28;20132;-74
2023/05/09 07:06:30;;;;;;;43.50;30.40;;;;;;;;;;5053309;28;20084;-74
2023/05/09 07:08:56;;;;;;;49.83;32.60;;;;;;;;;;5032381;28;20049;-74
2023/05/09 07:11:22;;;;;;;45.92;32.00;;;;;;;;;;5016057;28;20049;-73
2023/05/09 07:13:48;;;;;;;45.65;31.40;;;;;;;;;;5033025;28;20041;-73
2023/05/09 07:16:16;;;;;;;53.20;32.78;;;;;;;;;;5033450;28;20041;-73
2023/05/09 07:18:42;;;;;;;47.40;31.48;;;;;;;;;;5033517;28;20623;-74
2023/05/09 07:21:08;;;;;;;53.00;33.22;;;;;;;;;;5033240;28;20206;-75
2023/05/09 07:23:34;;;;;;;56.22;33.90;;;;;;;;;;5014675;28;20052;-75
2023/05/09 07:26:00;;;;;;;52.63;33.80;;;;;;;;;;5015169;28;20049;-75
2023/05/09 07:28:27;;;;;;;55.90;35.55;;;;;;;;;;5032678;28;20466;-73
2023/05/09 07:30:55;;;;;;;56.90;35.42;;;;;;;;;;5033042;28;20406;-73
2023/05/09 07:33:22;;;;;;;58.63;35.50;;;;;;;;;;5033467;28;20053;-74
2023/05/09 07:35:48;;;;;;;60.00;35.47;;;;;;;;;;5053267;28;20044;-74
2023/05/09 07:38:14;;;;;;;57.40;37.10;;;;;;;;;;5035026;28;20095;-73
2023/05/09 07:40:40;;;;;;;57.30;36.65;;;;;;;;;;5014676;28;20132;-73
2023/05/09 07:43:06;;;;;;;61.85;36.58;;;;;;;;;;5052231;28;20044;-72
2023/05/09 07:45:33;;;;;;;63.28;36.53;;;;;;;;;;5046572;28;20478;-71
2023/05/09 07:47:59;;;;;;;65.57;37.40;;;;;;;;;;5015045;28;20469;-72
2023/05/09 07:50:25;;;;;;;64.10;37.58;;;;;;;;;;5031274;28;20406;-73
2023/05/09 07:52:51;;;;;;;60.30;35.72;;;;;;;;;;5031323;28;20041;-73
2023/05/09 07:55:17;;;;;;;66.40;37.63;;;;;;;;;;5013962;28;20045;-73
2023/05/09 07:57:43;;;;;;;63.75;36.72;;;;;;;;;;5033396;28;20132;-73
2023/05/09 08:00:09;;;;;;;62.25;37.00;;;;;;;;;;5052206;28;20141;-73
2023/05/09 08:02:35;;;;;;;60.92;36.72;;;;;;;;;;5052249;28;20041;-73
2023/05/09 08:05:02;;;;;;;64.03;37.03;;;;;;;;;;5051954;28;20041;-74
2023/05/09 08:07:28;;;;;;;63.33;38.38;;;;;;;;;;5032624;28;20041;-74
2023/05/09 08:09:54;;;;;;;60.17;36.58;;;;;;;;;;5013193;28;20049;-74
2023/05/09 08:12:20;;;;;;;69.60;38.28;;;;;;;;;;5030985;28;20033;-74
2023/05/09 08:14:46;;;;;;;65.13;39.30;;;;;;;;;;5014487;28;20087;-74
2023/05/09 08:17:12;;;;;;;62.00;36.47;;;;;;;;;;5032397;28;20095;-74
2023/05/09 08:19:38;;;;;;;65.30;36.83;;;;;;;;;;5031579;28;20049;-74
2023/05/09 08:22:04;;;;;;;63.92;37.88;;;;;;;;;;5014818;28;20061;-74
2023/05/09 08:24:31;;;;;;;62.15;37.88;;;;;;;;;;5032363;28;20088;-73
2023/05/09 08:26:57;;;;;;;59.88;37.13;;;;;;;;;;5031344;28;20260;-73
2023/05/09 08:29:24;;;;;;;65.55;38.25;;;;;;;;;;5031782;28;20124;-74
2023/05/09 08:31:50;;;;;;;60.50;37.47;;;;;;;;;;5030856;28;20041;-74
2023/05/09 08:34:16;;;;;;;64.80;37.95;;;;;;;;;;5028704;28;20053;-74
2023/05/09 08:36:45;;;;;;;61.03;37.15;;;;;;;;;;5032375;28;20056;-74
2023/05/09 08:39:11;;;;;;;61.05;38.38;;;;;;;;;;5032277;28;20053;-73
2023/05/09 08:41:38;;;;;;;65.82;38.38;;;;;;;;;;5031531;28;20098;-74
2023/05/09 08:44:04;;;;;;;61.97;36.33;;;;;;;;;;5030164;28;20054;-74
2023/05/09 08:46:33;;;;;;;59.55;35.72;;;;;;;;;;5028942;28;20049;-74
2023/05/09 08:49:00;;;;;;;60.33;36.67;;;;;;;;;;5031449;28;20516;-74
2023/05/09 08:51:26;;;;;;;60.25;36.45;;;;;;;;;;5031705;28;20084;-74
2023/05/09 08:53:53;;;;;;;58.00;34.67;;;;;;;;;;5028709;28;20413;-77
2023/05/09 08:56:20;;;;;;;58.42;37.15;;;;;;;;;;5032804;28;20053;-77
2023/05/09 08:58:46;;;;;;;65.15;37.40;;;;;;;;;;5029485;28;20053;-77
2023/05/09 09:01:13;;;;;;;61.63;36.67;;;;;;;;;;5029233;28;20064;-78
2023/05/09 09:03:44;;;;;;;63.85;37.55;;;;;;;;;;5011371;28;20085;-76
2023/05/09 09:06:10;;;;;;;61.08;36.60;;;;;;;;;;5029031;28;20049;-76
2023/05/09 09:08:36;;;;;;;55.30;35.22;;;;;;;;;;5046631;28;20528;-77
2023/05/09 09:11:02;;;;;;;55.80;35.15;;;;;;;;;;5026901;28;20490;-77
2023/05/09 09:13:28;;;;;;;55.65;34.25;;;;;;;;;;5029071;28;20131;-77
2023/05/09 09:15:58;;;;;;;59.38;34.30;;;;;;;;;;5027721;28;20045;-77
2023/05/09 09:18:27;;;;;;;59.63;35.25;;;;;;;;;;5028821;28;20469;-77
2023/05/09 09:20:59;;;;;;;51.25;33.88;;;;;;;;;;5028660;28;20045;-77
2023/05/09 09:23:26;;;;;;;59.10;35.85;;;;;;;;;;5028608;28;20041;-78
2023/05/09 09:25:58;;;;;;;58.28;34.60;;;;;;;;;;5028478;28;20095;-77
2023/05/09 09:28:24;;;;;;;54.97;34.28;;;;;;;;;;5047444;28;20048;-74
2023/05/09 09:30:50;;;;;;;52.15;32.00;;;;;;;;;;5032528;28;20053;-73
2023/05/09 09:33:21;;;;;;;52.55;33.20;;;;;;;;;;5035117;28;20116;-73
2023/05/09 09:35:51;;;;;;;55.30;33.08;;;;;;;;;;5035140;28;20045;-73
2023/05/09 09:38:20;;;;;;;49.85;31.75;;;;;;;;;;5034251;28;20083;-71
2023/05/09 09:40:56;;;;;;;50.15;31.05;;;;;;;;;;5031761;28;20053;-71
2023/05/09 09:43:28;;;;;;;55.67;33.22;;;;;;;;;;5032289;28;20089;-70
2023/05/09 09:45:55;;;;;;;50.17;32.70;;;;;;;;;;5031999;28;20154;-70
2023/05/09 09:48:32;;;;;;;50.67;31.33;;;;;;;;;;5014553;28;20114;-71
2023/05/09 09:51:03;;;;;;;47.92;30.17;;;;;;;;;;5031057;28;20068;-70
2023/05/09 09:53:29;;;;;;;47.05;29.13;;;;;;;;;;5032401;28;20041;-72
2023/05/09 09:55:55;;;;;;;44.17;30.35;;;;;;;;;;5030779;28;20045;-71
2023/05/09 09:58:23;;;;;;;47.92;29.67;;;;;;;;;;5014404;28;20136;-71
2023/05/09 10:01:04;;;;;;;44.33;28.52;;;;;;;;;;5014498;28;20065;-77
2023/05/09 10:03:40;;;;;;;45.33;29.60;;;;;;;;;;5033942;28;20081;-75
2023/05/09 10:06:12;;;;;;;48.78;28.80;;;;;;;;;;5035398;28;20052;-74
2023/05/09 10:08:39;;;;;;;46.08;29.35;;;;;;;;;;5034205;28;20087;-73
2023/05/09 10:11:06;;;;;;;44.85;28.52;;;;;;;;;;5033713;28;20049;-73
2023/05/09 10:13:35;;;;;;;46.20;28.58;;;;;;;;;;5033967;28;20045;-73
2023/05/09 10:16:01;;;;;;;42.75;28.48;;;;;;;;;;5032002;28;20049;-74
2023/05/09 10:18:29;;;;;;;43.10;28.30;;;;;;;;;;5010182;28;20529;-74
2023/05/09 10:20:59;;;;;;;43.55;28.05;;;;;;;;;;5023657;28;20398;-74
2023/05/09 10:23:26;;;;;;;40.55;26.80;;;;;;;;;;5015606;28;20045;-73
2023/05/09 10:26:12;;;;;;;40.33;27.33;;;;;;;;;;5023437;28;20041;-74
2023/05/09 10:28:39;;;;;;;41.05;27.42;;;;;;;;;;5022913;28;20052;-74
2023/05/09 10:31:15;;;;;;;40.85;26.48;;;;;;;;;;5023279;28;20446;-74
2023/05/09 10:33:41;;;;;;;;;;;;;;;;;;5022716;28;20053;-74
2023/05/09 10:36:08;;;;;;;35.30;24.20;;;;;;;;;;5033038;28;19924;-74
2023/05/09 10:38:34;;;;;;;33.97;23.77;;;;;;;;;;5033696;28;20095;-74
2023/05/09 10:41:00;;;;;;;36.15;23.42;;;;;;;;;;5037082;28;20409;-74
2023/05/09 10:43:27;;;;;;;35.35;23.63;;;;;;;;;;5030347;28;20083;-74
2023/05/09 10:45:54;;;;;;;36.17;23.17;;;;;;;;;;5039780;28;20482;-74
2023/05/09 10:48:20;;;;;;;28.23;19.88;;;;;;;;;;5023626;28;20133;-74
2023/05/09 10:50:47;;;;;;;26.00;18.80;;;;;;;;;;5030731;28;20115;-74
2023/05/09 10:53:15;;;;;;;27.33;18.33;;;;;;;;;;5032245;28;20033;-74
2023/05/09 10:55:51;;;;;;;31.65;18.25;;;;;;;;;;5018045;28;20045;-74
2023/05/09 10:58:16;;;;;;;;;;;;;;;;;;5032410;28;20081;-74
2023/05/09 11:00:42;;;;;;;26.27;17.90;;;;;;;;;;5041037;28;19963;-74
2023/05/09 11:03:08;;;;;;;26.83;18.35;;;;;;;;;;5053800;28;20068;-75
2023/05/09 11:05:38;;;;;;;22.73;16.73;;;;;;;;;;5050315;28;20355;-75
2023/05/09 11:08:21;;;;;;;25.38;17.75;;;;;;;;;;5052334;28;20041;-74
2023/05/09 11:10:47;;;;;;;25.77;18.30;;;;;;;;;;5053445;28;20128;-74
2023/05/09 11:13:17;;;;;;;23.52;17.17;;;;;;;;;;5053951;28;20084;-74
2023/05/09 11:16:01;;;;;;;25.02;17.27;;;;;;;;;;5053759;28;20071;-74
2023/05/09 11:18:28;;;;;;;25.90;17.95;;;;;;;;;;5051451;28;20051;-74
2023/05/09 11:20:54;;;;;;;26.48;17.38;;;;;;;;;;5045323;28;20045;-74
2023/05/09 11:23:22;;;;;;;25.63;18.08;;;;;;;;;;5015503;28;20053;-74
2023/05/09 11:25:51;;;;;;;26.10;17.85;;;;;;;;;;5033302;28;20060;-74
2023/05/09 11:28:31;;;;;;;24.13;17.58;;;;;;;;;;5015113;28;20328;-74
2023/05/09 11:31:09;;;;;;;26.33;17.88;;;;;;;;;;5031587;28;20092;-74
2023/05/09 11:33:36;;;;;;;22.48;16.92;;;;;;;;;;5030292;28;20056;-74
2023/05/09 11:36:18;;;;;;;24.48;17.35;;;;;;;;;;5032135;28;20045;-74
2023/05/09 11:38:45;;;;;;;25.02;16.42;;;;;;;;;;5032546;28;20049;-74
2023/05/09 11:41:11;;;;;;;20.77;15.45;;;;;;;;;;5031597;28;20041;-74
2023/05/09 11:43:38;;;;;;;22.70;15.65;;;;;;;;;;5032124;28;20076;-74
2023/05/09 11:46:04;;;;;;;21.77;15.07;;;;;;;;;;5014121;28;20050;-74
2023/05/09 11:48:30;;;;;;;22.05;15.32;;;;;;;;;;5032978;28;20049;-75
2023/05/09 11:50:56;;;;;;;21.23;15.45;;;;;;;;;;5032899;28;20061;-76
2023/05/09 11:53:23;;;;;;;22.75;15.88;;;;;;;;;;5015164;28;20045;-76
2023/05/09 11:55:49;;;;;;;21.83;15.68;;;;;;;;;;5033037;28;20502;-76
2023/05/09 11:58:16;;;;;;;23.40;16.45;;;;;;;;;;5015058;28;20402;-76
2023/05/09 12:00:45;;;;;;;22.95;16.20;;;;;;;;;;5032096;28;20046;-75
2023/05/09 12:03:12;;;;;;;24.52;17.15;;;;;;;;;;5013291;28;20056;-76
2023/05/09 12:05:38;;;;;;;27.05;17.25;;;;;;;;;;5032697;28;20052;-75
2023/05/09 12:08:05;;;;;;;22.30;15.75;;;;;;;;;;5032853;28;20049;-75
2023/05/09 12:10:32;;;;;;;21.70;15.88;;;;;;;;;;5032423;28;20103;-76
2023/05/09 12:12:58;;;;;;;23.92;17.00;;;;;;;;;;5032799;28;20052;-76
2023/05/09 12:15:25;;;;;;;24.13;16.60;;;;;;;;;;5031522;28;20049;-75
2023/05/09 12:18:04;;;;;;;21.38;14.90;;;;;;;;;;5032597;28;20042;-74
2023/05/09 12:20:59;;;;;;;20.70;14.65;;;;;;;;;;5033095;28;20043;-74
2023/05/09 12:23:25;;;;;;;20.05;14.13;;;;;;;;;;5028777;28;20089;-74
2023/05/09 12:25:55;;;;;;;18.80;13.55;;;;;;;;;;5038909;28;20073;-74
2023/05/09 12:28:23;;;;;;;19.65;15.20;;;;;;;;;;5032642;28;20064;-75
2023/05/09 12:30:50;;;;;;;20.33;14.50;;;;;;;;;;5032615;28;20395;-74
2023/05/09 12:33:16;;;;;;;19.60;14.60;;;;;;;;;;5031760;28;20390;-75
2023/05/09 12:36:01;;;;;;;20.90;14.43;;;;;;;;;;5032623;28;20448;-75
2023/05/09 12:38:27;;;;;;;17.02;12.90;;;;;;;;;;5032619;28;20119;-74
2023/05/09 12:41:10;;;;;;;18.75;13.70;;;;;;;;;;5032445;28;20049;-75
2023/05/09 12:43:42;;;;;;;19.13;13.20;;;;;;;;;;5030907;28;20061;-75
2023/05/09 12:46:08;;;;;;;18.25;13.30;;;;;;;;;;5032628;28;20041;-75
2023/05/09 12:48:36;;;;;;;16.88;13.00;;;;;;;;;;5030806;28;20398;-76
2023/05/09 12:51:06;;;;;;;17.38;12.55;;;;;;;;;;5032012;28;20042;-76
2023/05/09 12:53:37;;;;;;;16.70;12.65;;;;;;;;;;5032582;28;20045;-76
2023/05/09 12:56:04;;;;;;;15.95;12.48;;;;;;;;;;5032444;28;20045;-76
2023/05/09 12:58:33;;;;;;;17.38;12.98;;;;;;;;;;4997910;28;20041;-76
2023/05/09 13:01:03;;;;;;;16.35;12.45;;;;;;;;;;5031821;28;20525;-76
2023/05/09 13:03:36;;;;;;;18.25;13.23;;;;;;;;;;5014248;28;20046;-76
2023/05/09 13:06:06;;;;;;;17.17;12.27;;;;;;;;;;5035043;28;20401;-76
2023/05/09 13:08:32;;;;;;;16.23;12.30;;;;;;;;;;5018435;28;20034;-75
2023/05/09 13:11:01;;;;;;;17.42;12.65;;;;;;;;;;5035898;28;20047;-76
2023/05/09 13:13:27;;;;;;;17.50;12.50;;;;;;;;;;5036076;28;20049;-76
2023/05/09 13:15:54;;;;;;;18.08;12.57;;;;;;;;;;5034497;28;20408;-76
2023/05/09 13:18:20;;;;;;;18.58;13.20;;;;;;;;;;5034805;28;20169;-75
2023/05/09 13:20:47;;;;;;;15.60;12.20;;;;;;;;;;5033617;28;20438;-76
2023/05/09 13:23:13;;;;;;;16.13;12.27;;;;;;;;;;5034199;28;20037;-76
2023/05/09 13:25:39;;;;;;;15.93;12.85;;;;;;;;;;5034963;28;20120;-75
2023/05/09 13:28:06;;;;;;;16.35;12.55;;;;;;;;;;5034522;28;20057;-76
2023/05/09 13:30:32;;;;;;;17.13;12.52;;;;;;;;;;5035140;28;20117;-75
2023/05/09 13:32:58;;;;;;;16.15;12.80;;;;;;;;;;5018104;28;20041;-75
2023/05/09 13:35:24;;;;;;;16.33;13.13;;;;;;;;;;5035086;28;20042;-76
2023/05/09 13:37:50;;;;;;;18.33;13.18;;;;;;;;;;5035137;28;20398;-76
2023/05/09 13:40:16;;;;;;;17.05;13.07;;;;;;;;;;5035632;28;20049;-76
2023/05/09 13:42:42;;;;;;;17.63;12.82;;;;;;;;;;5035630;28;20044;-75
2023/05/09 13:45:08;;;;;;;19.20;13.60;;;;;;;;;;5035384;28;20048;-76
2023/05/09 13:47:35;;;;;;;19.98;14.38;;;;;;;;;;5035629;28;20099;-76
2023/05/09 13:50:02;;;;;;;20.23;15.43;;;;;;;;;;5033952;28;20060;-76
2023/05/09 13:52:28;;;;;;;19.30;16.23;;;;;;;;;;5034059;28;20049;-76
2023/05/09 13:54:54;;;;;;;20.05;15.82;;;;;;;;;;5032460;28;20053;-76
2023/05/09 13:57:20;;;;;;;21.92;17.13;;;;;;;;;;5033691;28;20045;-76
2023/05/09 13:59:46;;;;;;;22.88;17.00;;;;;;;;;;5034915;28;20038;-76
2023/05/09 14:02:12;;;;;;;23.33;16.98;;;;;;;;;;5034837;28;20053;-76
2023/05/09 14:04:38;;;;;;;24.15;17.35;;;;;;;;;;5035404;28;20124;-76
2023/05/09 14:07:04;;;;;;;25.58;17.95;;;;;;;;;;5035370;28;20090;-76
2023/05/09 14:09:36;;;;;;;23.02;18.80;;;;;;;;;;5034955;28;20081;-76
2023/05/09 14:12:03;;;;;;;23.48;18.27;;;;;;;;;;5017193;28;20096;-76
2023/05/09 14:14:29;;;;;;;26.15;19.45;;;;;;;;;;5016889;28;20053;-76
2023/05/09 14:16:57;;;;;;;24.52;19.08;;;;;;;;;;5031052;28;20041;-75
2023/05/09 14:19:23;;;;;;;25.10;20.25;;;;;;;;;;5032610;28;20060;-75
2023/05/09 14:21:49;;;;;;;25.27;19.70;;;;;;;;;;5034519;28;20044;-76